Time;durP1;ratioP1;P1;durP2;ratioP2;P2;SDS_P1;SDS_P2;PMS_P1;PMS_P2;Temp;Humidity;BMP_temperature;BMP_pressure;BME280_temperature;BME280_humidity;BME280_pressure;Samples;Min_cycle;Max_cycle;Signal;HPM_P1;HPM_P2
2022/06/13 00:00:03;;;;;;;10.65;9.38;;;;;;;20.08;67.47;100527.09;4977787;28;102229;-60
2022/06/13 00:02:33;;;;;;;10.15;9.02;;;;;;;20.07;67.90;100520.75;4984619;28;102532;-61
2022/06/13 00:05:00;;;;;;;10.18;9.15;;;;;;;20.09;67.66;100525.97;4975821;28;104043;-61
2022/06/13 00:07:26;;;;;;;9.75;8.75;;;;;;;20.08;67.91;100521.56;4977416;28;102195;-61
2022/06/13 00:09:58;;;;;;;12.50;9.10;;;;;;;20.07;67.97;100514.44;4983894;28;102385;-61
2022/06/13 00:12:27;;;;;;;9.95;9.05;;;;;;;20.07;67.81;100519.97;4975298;28;102162;-60
2022/06/13 00:14:55;;;;;;;9.77;8.57;;;;;;;20.07;67.69;100529.06;4971496;28;104011;-61
2022/06/13 00:17:23;;;;;;;9.73;8.73;;;;;;;20.07;67.87;100531.00;4970681;28;102594;-61
2022/06/13 00:19:51;;;;;;;10.35;9.30;;;;;;;20.06;67.99;100519.16;4975700;28;102265;-60
2022/06/13 00:22:22;;;;;;;10.25;9.27;;;;;;;20.06;67.97;100519.16;4977403;28;102607;-62
2022/06/13 00:24:48;;;;;;;10.15;9.15;;;;;;;20.07;67.79;100511.69;4975119;28;103880;-60
2022/06/13 00:27:15;;;;;;;10.50;9.50;;;;;;;20.07;67.96;100522.72;4977266;28;102292;-60
2022/06/13 00:29:44;;;;;;;9.75;8.70;;;;;;;20.06;68.33;100512.84;4971751;28;102223;-61
2022/06/13 00:32:11;;;;;;;10.18;9.25;;;;;;;20.06;68.14;100515.59;4968641;28;102287;-60
2022/06/13 00:34:37;;;;;;;10.02;9.10;;;;;;;20.07;68.12;100515.25;4978141;28;104755;-60
2022/06/13 00:37:06;;;;;;;10.15;9.18;;;;;;;20.07;68.04;100514.44;4977014;28;102090;-61
2022/06/13 00:39:33;;;;;;;9.63;8.73;;;;;;;20.07;67.98;100511.69;4975460;28;102141;-61
2022/06/13 00:42:00;;;;;;;9.18;8.38;;;;;;;20.04;68.33;100504.06;4983736;28;102327;-60
2022/06/13 00:44:29;;;;;;;10.30;9.40;;;;;;;20.06;68.14;100518.34;4981841;28;103798;-61
2022/06/13 00:46:56;;;;;;;9.82;8.55;;;;;;;20.07;67.97;100519.97;4976068;28;102446;-61
2022/06/13 00:49:26;;;;;;;9.90;9.02;;;;;;;20.05;68.14;100523.06;4976384;28;102237;-61
2022/06/13 00:52:01;;;;;;;10.48;9.32;;;;;;;20.06;68.09;100518.34;4989286;28;102285;-60
2022/06/13 00:54:29;;;;;;;9.68;8.73;;;;;;;20.05;67.95;100509.25;4973058;28;104026;-61
2022/06/13 00:56:56;;;;;;;9.85;8.82;;;;;;;20.06;67.88;100516.41;4955378;28;102704;-60
2022/06/13 00:59:25;;;;;;;10.45;8.80;;;;;;;20.05;68.05;100512.03;4955546;28;102296;-61
2022/06/13 01:01:52;;;;;;;10.02;9.13;;;;;;;20.06;67.69;100515.59;4955572;28;102391;-61
2022/06/13 01:04:19;;;;;;;9.95;8.95;;;;;;;20.06;67.96;100518.34;4955598;28;104727;-61
2022/06/13 01:06:48;;;;;;;10.13;8.98;;;;;;;20.05;68.07;100525.00;4964017;28;102461;-61
2022/06/13 01:09:17;;;;;;;10.02;9.13;;;;;;;20.06;68.12;100519.16;4956140;28;102116;-61
2022/06/13 01:11:50;;;;;;;10.20;9.20;;;;;;;20.05;68.33;100522.25;4968538;28;102304;-61
2022/06/13 01:14:37;;;;;;;9.85;8.88;;;;;;;20.04;68.16;100523.41;4995641;28;104047;-61
2022/06/13 01:17:20;;;;;;;9.82;8.93;;;;;;;20.05;68.58;100516.72;4957756;28;102278;-61
2022/06/13 01:20:06;;;;;;;9.75;8.82;;;;;;;20.04;68.29;100517.88;4974394;28;102346;-60
2022/06/13 01:23:13;;;;;;;9.20;8.40;;;;;;;20.03;68.25;100513.50;4976596;28;102107;-60
2022/06/13 01:26:23;;;;;;;10.53;9.53;;;;;;;20.05;68.14;100519.47;4967931;28;104150;-61
2022/06/13 01:29:26;;;;;;;9.55;8.55;;;;;;;20.05;68.23;100527.78;4976816;28;101967;-60
2022/06/13 01:32:00;;;;;;;9.43;8.63;;;;;;;20.04;68.36;100515.09;4974252;28;102589;-61
2022/06/13 01:34:40;;;;;;;9.55;8.50;;;;;;;20.04;68.54;100520.63;4971952;28;103063;-61
2022/06/13 01:37:22;;;;;;;9.70;8.68;;;;;;;20.04;67.95;100518.69;4964140;28;103878;-61
2022/06/13 01:40:04;;;;;;;10.48;9.18;;;;;;;20.04;68.57;100518.69;4981972;28;102358;-61
2022/06/13 01:42:43;;;;;;;9.75;8.75;;;;;;;20.04;68.28;100515.91;4992093;28;102148;-62
2022/06/13 01:45:17;;;;;;;9.48;8.65;;;;;;;20.05;68.20;100519.47;4975491;28;102166;-61
2022/06/13 01:47:55;;;;;;;9.73;8.88;;;;;;;20.05;68.14;100516.72;4971654;28;103946;-61
2022/06/13 01:50:26;;;;;;;8.88;8.10;;;;;;;20.05;67.93;100533.28;4976313;28;102564;-61
2022/06/13 01:52:57;;;;;;;9.57;8.68;;;;;;;20.06;68.19;100532.16;4975610;28;102256;-62
2022/06/13 01:55:34;;;;;;;9.40;8.60;;;;;;;20.04;68.62;100521.44;4976336;28;102564;-61
2022/06/13 01:58:06;;;;;;;10.23;9.23;;;;;;;20.05;68.46;100525.00;4973550;28;108381;-60
2022/06/13 02:00:35;;;;;;;9.07;8.27;;;;;;;20.04;68.53;100520.63;4976471;28;102039;-61
2022/06/13 02:03:15;;;;;;;9.55;8.65;;;;;;;20.04;68.35;100520.63;4985310;28;102216;-61
2022/06/13 02:05:49;;;;;;;9.55;8.65;;;;;;;20.05;68.57;100516.72;4972880;28;102729;-61
2022/06/13 02:08:21;;;;;;;8.98;8.18;;;;;;;20.04;68.09;100520.63;4974055;28;104480;-61
2022/06/13 02:10:54;;;;;;;8.75;7.95;;;;;;;20.05;68.53;100522.25;4976552;28;102345;-60
2022/06/13 02:13:32;;;;;;;8.70;7.95;;;;;;;20.03;68.26;100521.78;4975509;28;102137;-61
2022/06/13 02:16:06;;;;;;;9.02;8.27;;;;;;;20.03;68.13;100524.56;4970911;28;102309;-61
2022/06/13 02:18:39;;;;;;;8.95;8.15;;;;;;;20.03;68.39;100528.13;4970451;28;103669;-61
2022/06/13 02:21:10;;;;;;;9.93;8.98;;;;;;;20.04;68.34;100526.97;4975858;28;102558;-61
2022/06/13 02:23:46;;;;;;;9.25;8.35;;;;;;;20.05;68.43;100527.78;4977935;28;102348;-60
2022/06/13 02:26:19;;;;;;;9.02;8.15;;;;;;;20.04;68.32;100520.63;4976614;28;102296;-61
2022/06/13 02:28:51;;;;;;;9.32;8.48;;;;;;;20.05;68.38;100536.06;4971419;28;103924;-61
2022/06/13 02:31:24;;;;;;;8.98;8.18;;;;;;;20.05;68.44;100522.25;4974031;28;102115;-61
2022/06/13 02:33:58;;;;;;;9.18;8.30;;;;;;;20.05;68.19;100533.28;4973008;28;102595;-61
2022/06/13 02:36:31;;;;;;;9.23;8.38;;;;;;;20.05;68.51;100536.06;4958872;28;102187;-61
2022/06/13 02:39:04;;;;;;;9.40;8.50;;;;;;;20.05;68.33;100541.59;4973352;28;107669;-61
2022/06/13 02:41:38;;;;;;;9.73;8.82;;;;;;;20.05;68.22;100539.66;4988232;28;102061;-60
2022/06/13 02:44:08;;;;;;;9.02;8.23;;;;;;;20.05;68.43;100545.19;4979252;28;102171;-61
2022/06/13 02:46:40;;;;;;;9.07;8.27;;;;;;;20.05;68.27;100538.81;4964037;28;102247;-60
2022/06/13 02:49:14;;;;;;;9.20;8.40;;;;;;;20.06;68.43;100545.97;4955413;28;104658;-62
2022/06/13 02:51:46;;;;;;;8.25;7.55;;;;;;;20.06;68.50;100540.47;4955796;28;102478;-60
2022/06/13 02:54:18;;;;;;;9.15;8.35;;;;;;;20.07;68.33;100542.06;4975453;28;102478;-61
2022/06/13 02:59:56;;;;;;;9.30;8.50;;;;;;;20.07;68.19;100545.63;4954783;28;103722;-61
2022/06/13 03:02:27;;;;;;;8.88;8.02;;;;;;;20.07;68.27;100542.88;4959750;28;102332;-61
2022/06/13 03:05:03;;;;;;;9.38;8.48;;;;;;;20.08;67.85;100549.19;4977684;28;102335;-61
2022/06/13 03:07:34;;;;;;;9.05;8.25;;;;;;;20.08;68.10;100549.19;4977874;28;102318;-61
2022/06/13 03:10:09;;;;;;;9.23;8.38;;;;;;;20.08;68.07;100549.19;4978050;28;103724;-61
2022/06/13 03:12:47;;;;;;;8.45;7.72;;;;;;;20.08;67.93;100554.72;4977731;28;102623;-61
2022/06/13 03:15:23;;;;;;;8.80;8.05;;;;;;;20.09;67.66;100550.81;4974163;28;102061;-62
2022/06/13 03:17:55;;;;;;;8.85;8.05;;;;;;;20.09;68.21;100567.41;4967288;28;102243;-62
2022/06/13 03:20:30;;;;;;;8.55;7.70;;;;;;;20.10;67.83;100558.75;4977696;28;104038;-61
2022/06/13 03:23:03;;;;;;;8.82;8.02;;;;;;;20.11;68.07;100565.09;4973416;28;102194;-61
2022/06/13 03:25:38;;;;;;;8.48;7.78;;;;;;;20.11;68.13;100565.91;4981640;28;102525;-61
2022/06/13 03:28:12;;;;;;;8.77;8.02;;;;;;;20.12;67.98;100566.69;4977420;28;102330;-60
2022/06/13 03:30:43;;;;;;;9.35;8.38;;;;;;;20.12;67.89;100567.53;4976868;28;104235;-62
2022/06/13 03:36:07;;;;;;;9.38;8.48;;;;;;;20.13;67.88;100576.63;4977117;28;102253;-60
2022/06/13 03:38:38;;;;;;;10.60;9.70;;;;;;;20.14;67.99;100575.47;4977568;28;102239;-61
2022/06/13 03:41:08;;;;;;;9.35;8.48;;;;;;;20.13;68.36;100573.88;4970219;28;104067;-61
2022/06/13 03:43:42;;;;;;;9.35;8.45;;;;;;;20.13;68.01;100579.38;4975377;28;102224;-61
2022/06/13 03:46:16;;;;;;;9.30;8.50;;;;;;;20.14;67.71;100575.47;4967335;28;102316;-61
2022/06/13 03:48:50;;;;;;;9.60;8.57;;;;;;;20.13;67.90;100591.25;4974727;28;102655;-61
2022/06/13 03:51:21;;;;;;;8.85;7.95;;;;;;;20.14;67.94;100598.38;4977565;28;103986;-60
2022/06/13 03:53:52;;;;;;;9.70;8.80;;;;;;;20.15;68.15;100593.66;4978270;28;101995;-61
2022/06/13 03:56:23;;;;;;;9.77;8.85;;;;;;;20.15;68.29;100599.19;4975804;28;102044;-60
2022/06/13 03:58:53;;;;;;;9.95;9.02;;;;;;;20.16;68.14;100600.81;4967659;28;102385;-60
2022/06/13 04:01:25;;;;;;;9.02;8.23;;;;;;;20.15;68.16;100588.13;4972273;28;103907;-60
2022/06/13 04:03:53;;;;;;;8.38;7.68;;;;;;;20.16;68.35;100595.28;4977738;28;102378;-61
2022/06/13 04:06:34;;;;;;;10.25;9.20;;;;;;;20.15;67.96;100599.19;4976806;28;102292;-61
2022/06/13 04:09:04;;;;;;;8.88;8.07;;;;;;;20.17;68.24;100596.91;4988244;28;107642;-61
2022/06/13 04:11:44;;;;;;;9.35;8.45;;;;;;;20.15;68.35;100594.47;4973279;28;104287;-61
2022/06/13 04:14:23;;;;;;;9.55;8.75;;;;;;;20.17;68.55;100602.44;4968811;28;102613;-61
2022/06/13 04:16:57;;;;;;;8.93;8.23;;;;;;;20.17;68.41;100591.38;4965768;28;102385;-60
2022/06/13 04:19:35;;;;;;;9.50;8.55;;;;;;;20.17;68.28;100596.91;4978366;28;102897;-60
2022/06/13 04:22:14;;;;;;;9.52;8.63;;;;;;;20.19;68.20;100597.34;4978338;28;104032;-60
2022/06/13 04:24:53;;;;;;;9.48;8.57;;;;;;;20.18;68.26;100598.50;4974804;28;102424;-61
2022/06/13 04:27:23;;;;;;;9.07;8.25;;;;;;;20.19;68.25;100602.06;4975637;28;102047;-61
2022/06/13 04:29:58;;;;;;;9.38;8.48;;;;;;;20.19;68.01;100600.13;4977941;28;102459;-61
2022/06/13 04:32:33;;;;;;;9.77;8.60;;;;;;;20.19;68.34;100605.63;4975067;28;103911;-60
2022/06/13 04:35:00;;;;;;;11.43;8.60;;;;;;;20.20;68.13;100612.81;4976222;28;101841;-61
2022/06/13 04:37:29;;;;;;;11.63;8.00;;;;;;;20.20;68.72;100604.50;4976527;28;102278;-61
2022/06/13 04:40:00;;;;;;;9.32;8.20;;;;;;;20.22;68.20;100604.16;4970264;28;102494;-60
2022/06/13 04:42:34;;;;;;;12.02;8.70;;;;;;;20.21;67.95;100606.13;4979236;28;103951;-60
2022/06/13 04:45:13;;;;;;;9.40;8.07;;;;;;;20.20;68.53;100601.75;4989829;28;102033;-62
2022/06/13 04:47:42;;;;;;;8.60;7.90;;;;;;;20.22;68.23;100609.69;4976255;28;102273;-61
2022/06/13 04:50:16;;;;;;;8.98;8.15;;;;;;;20.22;68.22;100615.22;4977640;28;102245;-60
2022/06/13 04:52:48;;;;;;;9.43;8.60;;;;;;;20.22;68.31;100607.72;4982392;28;103891;-60
2022/06/13 04:55:23;;;;;;;9.30;8.40;;;;;;;20.22;68.41;100604.16;4957413;28;102129;-61
2022/06/13 04:57:51;;;;;;;8.90;8.00;;;;;;;20.23;68.26;100605.78;4957153;28;102194;-61
2022/06/13 05:00:18;;;;;;;9.23;8.43;;;;;;;20.24;68.47;100612.94;4963832;28;102522;-61
2022/06/13 05:02:49;;;;;;;8.90;8.10;;;;;;;20.24;68.33;100608.22;4972372;28;103914;-61
2022/06/13 05:05:29;;;;;;;9.90;8.07;;;;;;;20.24;68.54;100613.75;4976145;28;102570;-61
2022/06/13 05:07:58;;;;;;;9.00;8.20;;;;;;;20.27;68.34;100621.34;4976321;28;102358;-60
2022/06/13 05:10:31;;;;;;;8.55;7.85;;;;;;;20.27;68.26;100623.31;4977003;28;102019;-61
2022/06/13 05:12:59;;;;;;;8.30;7.60;;;;;;;20.27;68.27;100629.66;4967301;28;103941;-61
2022/06/13 05:15:32;;;;;;;9.45;8.55;;;;;;;20.30;68.17;100634.50;4976833;28;102175;-61
2022/06/13 05:18:21;;;;;;;8.90;8.10;;;;;;;20.30;68.30;100642.78;4977944;28;102400;-61
2022/06/13 05:21:00;;;;;;;9.13;8.32;;;;;;;20.31;68.25;100636.09;4971457;28;102419;-61
2022/06/13 05:23:49;;;;;;;9.23;8.30;;;;;;;20.33;68.34;100641.28;4974530;28;108018;-61
2022/06/13 05:26:15;;;;;;;8.15;7.45;;;;;;;20.34;68.20;100631.84;4961042;28;102650;-61
2022/06/13 05:28:42;;;;;;;9.43;8.00;;;;;;;20.36;68.41;100633.13;4966353;28;102158;-61
2022/06/13 05:31:18;;;;;;;8.52;7.60;;;;;;;20.37;68.18;100629.19;4974381;28;102166;-60
2022/06/13 05:33:48;;;;;;;8.50;7.80;;;;;;;20.38;68.20;100630.84;4974208;28;104119;-60
2022/06/13 05:36:16;;;;;;;8.40;7.60;;;;;;;20.40;68.09;100631.28;4976299;28;102602;-60
2022/06/13 05:38:47;;;;;;;8.23;7.53;;;;;;;20.42;68.40;100630.97;4975675;28;102635;-60
2022/06/13 05:41:14;;;;;;;9.10;8.30;;;;;;;20.43;68.22;100624.28;4972623;28;102138;-61
2022/06/13 05:43:41;;;;;;;8.55;7.75;;;;;;;20.45;68.17;100629.47;4975849;28;104427;-60
2022/06/13 05:46:15;;;;;;;8.25;7.47;;;;;;;20.46;68.17;100625.56;4983032;28;102061;-60
2022/06/13 05:48:42;;;;;;;9.70;8.70;;;;;;;20.46;68.00;100620.03;4975823;28;102161;-61
2022/06/13 05:51:08;;;;;;;9.20;8.10;;;;;;;20.47;68.07;100621.66;4969224;28;102155;-61
2022/06/13 05:53:35;;;;;;;9.20;8.38;;;;;;;20.50;68.10;100621.00;4975248;28;104080;-61
2022/06/13 05:56:04;;;;;;;8.15;7.45;;;;;;;20.50;68.06;100624.56;4976191;28;102460;-61
2022/06/13 05:58:31;;;;;;;9.13;8.23;;;;;;;20.53;68.04;100631.38;4975324;28;102525;-62
2022/06/13 06:00:58;;;;;;;8.15;7.38;;;;;;;20.54;68.28;100630.22;4974390;28;102490;-60
2022/06/13 06:03:26;;;;;;;8.63;7.87;;;;;;;20.54;68.16;100630.22;4975218;28;103958;-61
2022/06/13 06:05:52;;;;;;;9.00;8.15;;;;;;;20.55;68.14;100623.53;4974647;28;102480;-60
2022/06/13 06:08:21;;;;;;;8.82;7.82;;;;;;;20.57;68.14;100632.31;4957211;28;102110;-61
2022/06/13 06:10:48;;;;;;;;;;;;;;;20.58;68.20;100633.91;4972875;28;102265;-60
2022/06/13 06:13:17;;;;;;;8.50;7.70;;;;;;;20.58;67.99;100629.19;4972467;28;104257;-60
2022/06/13 06:15:44;;;;;;;8.40;7.53;;;;;;;20.57;67.98;100627.59;4974964;28;102354;-60
2022/06/13 06:18:13;;;;;;;8.60;7.80;;;;;;;20.59;67.90;100618.94;4963939;28;102665;-60
2022/06/13 06:20:41;;;;;;;8.60;7.88;;;;;;;20.59;68.01;100624.47;4972529;28;102095;-60
2022/06/13 06:23:08;;;;;;;8.15;7.35;;;;;;;20.60;67.93;100623.34;4974013;28;103941;-60
2022/06/13 06:25:35;;;;;;;8.43;7.72;;;;;;;20.62;67.92;100632.09;4975937;28;102147;-60
2022/06/13 06:28:03;;;;;;;7.50;6.80;;;;;;;20.63;67.75;100642.03;4967726;28;106046;-61
2022/06/13 06:30:31;;;;;;;8.55;7.85;;;;;;;20.63;67.87;100636.50;4967852;28;102126;-60
2022/06/13 06:32:58;;;;;;;;;;;;;;;20.64;67.98;100633.38;4955137;28;104286;-60
2022/06/13 06:35:28;;;;;;;8.30;7.50;;;;;;;20.65;67.96;100634.19;4965784;28;102335;-61
2022/06/13 06:37:55;;;;;;;7.72;6.93;;;;;;;20.67;68.21;100618.06;4981197;28;102128;-60
2022/06/13 06:40:25;;;;;;;7.07;6.47;;;;;;;20.68;68.05;100621.63;4979963;28;102485;-61
2022/06/13 06:42:52;;;;;;;7.60;6.90;;;;;;;20.68;68.05;100622.44;4976739;28;104029;-61
2022/06/13 06:45:19;;;;;;;7.90;6.47;;;;;;;20.68;68.02;100622.44;4984150;28;102355;-60
2022/06/13 06:47:47;;;;;;;7.95;7.25;;;;;;;20.69;67.90;100624.03;4980608;28;102303;-60
2022/06/13 06:50:16;;;;;;;8.80;7.33;;;;;;;20.67;67.68;100626.34;4979656;28;102285;-60
2022/06/13 06:52:44;;;;;;;7.75;7.05;;;;;;;20.69;67.86;100618.50;4973140;28;104111;-62
2022/06/13 07:00:44;;;;;;;7.93;7.28;;;;;;;20.72;67.98;100623.38;4985014;28;102710;-61
2022/06/13 07:03:12;;;;;;;7.90;7.20;;;;;;;20.74;67.84;100620.28;4975463;28;104138;-60
2022/06/13 07:05:38;;;;;;;7.93;7.22;;;;;;;20.74;67.94;100626.59;4965382;28;102452;-60
2022/06/13 07:08:07;;;;;;;7.78;7.07;;;;;;;20.74;67.95;100623.84;4958492;28;102216;-60
2022/06/13 07:10:34;;;;;;;7.97;7.28;;;;;;;20.74;67.76;100623.84;4969811;28;104722;-60
2022/06/13 07:13:02;;;;;;;;;;;;;;;20.73;67.76;100624.97;4971558;28;103695;-60
2022/06/13 07:15:29;;;;;;;8.70;7.90;;;;;;;20.75;67.85;100621.88;4962654;28;102748;-60
2022/06/13 07:17:55;;;;;;;8.35;7.57;;;;;;;20.75;67.84;100624.66;4966893;28;102702;-61
2022/06/13 07:20:23;;;;;;;7.43;6.82;;;;;;;20.76;67.76;100624.28;4969515;28;102533;-61
2022/06/13 07:22:53;;;;;;;8.50;7.70;;;;;;;20.76;67.84;100618.75;4971728;28;103909;-61
2022/06/13 07:25:22;;;;;;;7.18;6.57;;;;;;;20.77;67.80;100620.41;4979069;28;102564;-61
2022/06/13 07:27:49;;;;;;;8.07;7.28;;;;;;;20.80;67.83;100614.16;4971071;28;102173;-61
2022/06/13 07:30:19;;;;;;;8.23;6.97;;;;;;;20.83;67.66;100619.00;4977778;28;102173;-61
2022/06/13 07:32:47;;;;;;;7.90;6.90;;;;;;;20.81;67.92;100624.09;4977572;28;104121;-61
2022/06/13 07:35:17;;;;;;;8.10;7.40;;;;;;;20.80;67.73;100619.69;4975678;28;102307;-61
2022/06/13 07:40:31;;;;;;;7.10;6.53;;;;;;;20.82;67.86;100620.16;4975832;28;102018;-61
2022/06/13 07:43:01;;;;;;;7.43;6.75;;;;;;;20.84;67.80;100626.19;4974806;28;103909;-61
2022/06/13 07:45:30;;;;;;;7.07;6.55;;;;;;;20.84;67.90;100623.41;4976847;28;102472;-60
2022/06/13 07:47:57;;;;;;;7.38;6.78;;;;;;;20.83;67.82;100627.31;4976001;28;102210;-61
2022/06/13 07:50:25;;;;;;;7.65;6.95;;;;;;;20.84;67.76;100620.66;4978926;28;102372;-61
2022/06/13 07:52:54;;;;;;;7.53;6.80;;;;;;;20.82;67.68;100622.94;4975670;28;103904;-62
2022/06/13 07:55:22;;;;;;;8.00;7.30;;;;;;;20.82;67.83;100624.91;4978000;28;102142;-61
2022/06/13 07:57:49;;;;;;;7.82;7.13;;;;;;;20.82;67.78;100620.16;4976736;28;103971;-60
2022/06/13 08:00:21;;;;;;;9.65;7.28;;;;;;;20.83;67.72;100623.72;4974832;28;102586;-60
2022/06/13 08:02:48;;;;;;;7.40;6.72;;;;;;;20.82;67.73;100628.47;4973814;28;103850;-61
2022/06/13 08:05:14;;;;;;;8.38;7.68;;;;;;;20.81;67.76;100621.31;4985899;28;102437;-60
2022/06/13 08:07:42;;;;;;;7.13;6.53;;;;;;;20.82;67.65;100627.66;4975307;28;102988;-60
2022/06/13 08:10:11;;;;;;;8.00;7.20;;;;;;;20.83;67.58;100630.06;4976278;28;102415;-60
2022/06/13 08:12:39;;;;;;;7.97;7.28;;;;;;;20.84;67.84;100623.41;4981448;28;104032;-60
2022/06/13 08:15:07;;;;;;;;;;;;;;;20.87;67.89;100619.94;4983454;28;102646;-61
2022/06/13 08:17:34;;;;;;;7.38;6.78;;;;;;;20.91;68.02;100627.53;4958307;28;102281;-60
2022/06/13 08:20:01;;;;;;;7.75;7.13;;;;;;;20.86;67.79;100629.38;4973662;28;102557;-60
2022/06/13 08:22:28;;;;;;;9.38;7.43;;;;;;;20.86;67.68;100623.84;4975262;28;104243;-60
2022/06/13 08:24:55;;;;;;;6.93;6.32;;;;;;;20.91;68.11;100624.78;4975154;28;102306;-60
2022/06/13 08:27:22;;;;;;;7.93;7.22;;;;;;;20.92;68.03;100631.94;4976056;28;102044;-60
2022/06/13 08:29:49;;;;;;;7.28;6.68;;;;;;;20.92;67.83;100623.66;4977068;28;102128;-60
2022/06/13 08:32:16;;;;;;;7.72;7.13;;;;;;;20.92;67.82;100626.41;4964183;28;104008;-61
2022/06/13 08:34:42;;;;;;;7.70;7.10;;;;;;;20.91;67.87;100624.78;4956880;28;102179;-61
2022/06/13 08:37:09;;;;;;;7.63;7.03;;;;;;;20.88;67.58;100618.81;4956379;28;102288;-60
2022/06/13 08:39:35;;;;;;;8.32;7.63;;;;;;;20.86;67.48;100618.31;4962623;28;102451;-61
2022/06/13 08:42:09;;;;;;;8.25;7.53;;;;;;;20.85;67.71;100619.47;4976186;28;103995;-60
2022/06/13 08:44:48;;;;;;;7.60;7.00;;;;;;;20.88;67.68;100618.00;4980774;28;102042;-60
2022/06/13 08:47:23;;;;;;;7.80;7.05;;;;;;;20.93;67.89;100625.25;4974163;28;103903;-60
2022/06/13 08:50:01;;;;;;;7.55;6.85;;;;;;;20.91;67.87;100619.25;4966491;28;102230;-61
2022/06/13 08:52:30;;;;;;;7.47;6.88;;;;;;;20.88;67.50;100621.56;4962856;28;104026;-61
2022/06/13 08:55:10;;;;;;;8.40;7.50;;;;;;;20.86;67.64;100623.84;4965123;28;102335;-61
2022/06/13 08:57:44;;;;;;;7.93;7.32;;;;;;;20.86;67.47;100626.63;4970582;28;102027;-61
2022/06/13 09:00:15;;;;;;;7.72;7.10;;;;;;;20.88;67.61;100621.56;4973723;28;102480;-61
2022/06/13 09:02:48;;;;;;;8.00;7.30;;;;;;;20.91;67.53;100624.78;4976059;28;103945;-60
2022/06/13 09:05:22;;;;;;;6.97;6.38;;;;;;;20.89;67.49;100619.59;4976699;28;101898;-61
2022/06/13 09:07:52;;;;;;;7.75;6.85;;;;;;;20.91;67.83;100627.53;4974859;28;102254;-60
2022/06/13 09:10:31;;;;;;;7.20;6.50;;;;;;;20.91;67.86;100625.59;4973699;28;102537;-61
2022/06/13 09:13:07;;;;;;;6.93;6.30;;;;;;;20.88;67.37;100616.03;4964113;28;107992;-61
2022/06/13 09:15:41;;;;;;;7.00;6.40;;;;;;;20.90;67.50;100625.94;4957161;28;102138;-61
2022/06/13 09:18:17;;;;;;;7.78;7.13;;;;;;;20.86;67.44;100618.31;4956174;28;102063;-61
2022/06/13 09:20:53;;;;;;;8.55;7.72;;;;;;;20.86;67.19;100623.84;4972894;28;102178;-61
2022/06/13 09:23:30;;;;;;;7.85;7.25;;;;;;;20.85;67.15;100616.72;4980450;28;104075;-61
2022/06/13 09:26:03;;;;;;;7.78;7.15;;;;;;;20.85;67.00;100622.25;4984957;28;102388;-61
2022/06/13 09:28:38;;;;;;;8.38;7.57;;;;;;;20.85;67.19;100621.44;4963796;28;102716;-61
2022/06/13 09:31:09;;;;;;;8.50;7.72;;;;;;;20.84;67.03;100620.66;4964492;28;102391;-60
2022/06/13 09:33:45;;;;;;;7.28;6.68;;;;;;;20.84;67.12;100620.66;4991262;28;104106;-59
2022/06/13 09:36:17;;;;;;;7.45;6.75;;;;;;;20.83;67.38;100616.25;4978338;28;102203;-60
2022/06/13 09:38:47;;;;;;;7.70;7.00;;;;;;;20.82;67.00;100617.41;4985395;28;102207;-61
2022/06/13 09:41:42;;;;;;;8.50;7.80;;;;;;;20.81;67.08;100626.84;4969628;28;102610;-61
2022/06/13 09:44:20;;;;;;;8.10;7.40;;;;;;;20.80;67.07;100625.22;4957352;28;103891;-60
2022/06/13 09:46:54;;;;;;;;;;;;;;;20.81;67.28;100618.56;4975617;28;101906;-59
2022/06/13 09:49:36;;;;;;;8.05;7.22;;;;;;;20.80;67.04;100608.63;4969156;28;102397;-60
2022/06/13 09:52:13;;;;;;;7.70;7.10;;;;;;;20.81;67.20;100621.31;4975696;28;102097;-61
2022/06/13 09:54:46;;;;;;;7.50;6.80;;;;;;;20.82;67.06;100622.94;4961936;28;103844;-61
2022/06/13 09:57:23;;;;;;;7.20;6.60;;;;;;;20.81;67.24;100618.56;4973633;28;102392;-61
2022/06/13 10:00:06;;;;;;;7.88;7.28;;;;;;;20.78;67.10;100610.94;4955366;28;102076;-61
2022/06/13 10:02:45;;;;;;;8.02;7.13;;;;;;;20.79;67.57;100608.97;4965723;28;102108;-61
2022/06/13 10:05:22;;;;;;;7.68;6.93;;;;;;;20.79;67.08;100607.00;4978158;28;103951;-61
2022/06/13 10:07:59;;;;;;;8.48;7.78;;;;;;;20.80;67.28;100602.28;4963860;28;102105;-61
2022/06/13 10:10:32;;;;;;;7.32;6.72;;;;;;;20.80;67.33;100600.31;4955777;28;102208;-60
2022/06/13 10:13:14;;;;;;;7.15;6.55;;;;;;;20.77;67.12;100603.81;4970173;28;102143;-60
2022/06/13 10:15:49;;;;;;;7.63;7.03;;;;;;;20.76;67.20;100602.16;4966792;28;103702;-61
2022/06/13 10:18:33;;;;;;;7.82;7.13;;;;;;;20.76;67.22;100607.69;4973333;28;102367;-61
2022/06/13 10:21:10;;;;;;;8.93;6.75;;;;;;;20.77;67.19;100602.97;4971122;28;102333;-62
2022/06/13 10:23:47;;;;;;;8.43;7.57;;;;;;;20.75;66.97;100611.63;4965720;28;102514;-60
2022/06/13 10:26:24;;;;;;;7.22;6.63;;;;;;;20.74;67.25;100614.75;4972699;28;103799;-60
2022/06/13 10:29:03;;;;;;;7.82;7.22;;;;;;;20.74;67.13;100603.69;4958477;28;102368;-60
2022/06/13 10:31:43;;;;;;;7.35;6.75;;;;;;;20.73;67.13;100602.84;4959419;28;102342;-60
2022/06/13 10:34:25;;;;;;;7.18;6.57;;;;;;;20.76;67.14;100602.16;4974056;28;102130;-61
2022/06/13 10:37:02;;;;;;;7.10;6.50;;;;;;;20.79;67.12;100603.44;4984027;28;104163;-61
2022/06/13 10:39:30;;;;;;;6.70;6.10;;;;;;;20.79;67.11;100607.00;4972900;28;102321;-60
2022/06/13 10:42:01;;;;;;;6.83;6.33;;;;;;;20.76;66.91;100607.69;4980801;28;102062;-60
2022/06/13 10:44:27;;;;;;;6.95;6.35;;;;;;;20.74;66.94;100607.25;4981442;28;102539;-60
2022/06/13 10:47:03;;;;;;;7.03;6.53;;;;;;;20.74;66.99;100593.41;4978342;28;103932;-61
2022/06/13 10:49:36;;;;;;;7.10;6.50;;;;;;;20.75;67.13;100599.75;4973159;28;102343;-60
2022/06/13 10:52:14;;;;;;;7.38;6.82;;;;;;;20.75;67.23;100595.03;4981607;28;101831;-61
2022/06/13 10:54:45;;;;;;;6.63;6.13;;;;;;;20.74;67.09;100590.66;4980998;28;102549;-60
2022/06/13 10:57:17;;;;;;;7.07;6.47;;;;;;;20.72;66.85;100590.19;4971226;28;103825;-61
2022/06/13 10:59:44;;;;;;;7.85;6.88;;;;;;;20.75;67.33;100588.69;4967541;28;104616;-59
2022/06/13 11:02:24;;;;;;;7.00;6.50;;;;;;;20.73;67.01;100585.44;4968930;28;103807;-60
2022/06/13 11:05:06;;;;;;;7.10;6.50;;;;;;;20.73;67.06;100586.25;4988505;28;102159;-60
2022/06/13 11:07:41;;;;;;;6.60;6.10;;;;;;;20.71;67.19;100583.03;4973953;28;103887;-60
2022/06/13 11:10:21;;;;;;;7.30;6.70;;;;;;;20.72;67.09;100573.59;4969060;28;102272;-60
2022/06/13 11:12:51;;;;;;;7.60;7.00;;;;;;;20.71;67.28;100574.75;4975174;28;102487;-60
2022/06/13 11:23:55;;;;;;;7.05;6.45;;;;;;;20.71;67.32;100577.50;4957621;28;102460;-60
2022/06/13 11:29:14;;;;;;;6.53;6.03;;;;;;;20.69;67.50;100568.75;4956626;28;103881;-60
2022/06/13 11:31:47;;;;;;;6.80;6.15;;;;;;;20.71;67.25;100560.91;4954353;28;102169;-60
2022/06/13 11:34:24;;;;;;;7.63;6.97;;;;;;;20.71;67.20;100554.59;4946403;28;102293;-60
2022/06/13 11:37:00;;;;;;;6.75;6.15;;;;;;;20.68;67.15;100560.81;4952338;28;102339;-60
2022/06/13 11:39:36;;;;;;;6.82;6.22;;;;;;;20.71;67.32;100549.84;4945784;28;103796;-60
2022/06/13 11:42:09;;;;;;;7.63;6.55;;;;;;;20.71;67.35;100558.16;4958383;28;102058;-60
2022/06/13 11:44:42;;;;;;;6.13;5.60;;;;;;;20.71;67.14;100560.13;4956729;28;102153;-60
2022/06/13 11:47:10;;;;;;;6.55;6.05;;;;;;;20.72;67.17;100558.97;4954156;28;102519;-60
2022/06/13 11:49:39;;;;;;;6.70;6.20;;;;;;;20.71;67.41;100549.06;4954094;28;104033;-60
2022/06/13 11:55:23;;;;;;;6.68;6.18;;;;;;;20.70;67.35;100559.31;4952124;28;102300;-61
2022/06/13 11:57:53;;;;;;;6.80;6.25;;;;;;;20.72;67.14;100557.00;4956392;28;102314;-60
2022/06/13 12:00:37;;;;;;;7.13;6.53;;;;;;;20.74;67.13;100557.47;4942808;28;104072;-60
2022/06/13 12:03:13;;;;;;;6.07;5.68;;;;;;;20.74;67.23;100542.84;4945179;28;102621;-61
2022/06/13 12:05:41;;;;;;;6.68;6.07;;;;;;;20.71;67.17;100536.03;4961612;28;102365;-60
2022/06/13 12:08:23;;;;;;;5.93;5.43;;;;;;;20.72;67.23;100539.59;4967219;28;102560;-61